Pacific - South Coast: Past 24 Hour Conditions

 

South Nomad - 46036

07:00 AM PST 18 January 2017Buoy position: 48.35N 133.95W
Disclaimer

This table is a summary of hourly weather conditions for the past 24 hours.
Please note that these observations might not always be representative of weather conditions over their associated marine area.

Date / Time
(PST)
Wind(knots) Wave height(m) Wave period(s) Pressure(kPa) Air tempC) Water tempC)
18 January 2017
7:00 SW 4 gust 6 3.5 11.0 97.6 7 8
6:00 SW 6 gust 10 3.8 12.0 97.6 7 8
5:00 SSW 12 gust 14 3.8 12.0 97.6 7 8
4:00 SSW 14 gust 18 3.5 11.0 97.6 7 8
3:00 SSW 12 gust 14 4.1 11.0 97.7 7 8
2:00 SSW 14 gust 18 3.9 11.0 97.7 7 8
1:00 SW 14 gust 16 4.0 12.0 97.7 7 8
0:00 WSW 16 gust 19 3.9 11.0 97.7 7 8
17 January 2017
23:00 WSW 18 gust 21 3.5 12.0 97.7 8 8
22:00 W 18 gust 23 3.8 11.0 97.6 7 8
21:00 W 18 gust 21 3.7 11.0 97.4 7 8
20:00 WNW 16 gust 19 3.9 11.0 97.3 7 8
19:00 NW 10 gust 12 4.1 13.0 97.2 7 8
18:00 N 6 gust 10 4.3 12.0 97.2 7 8
17:00 E 4 gust 6 3.8 13.0 97.3 7 8
16:00 SSE 6 gust 8 4.3 13.0 97.4 7 8
15:00 SSW 8 gust 12 4.4 14.0 97.6 7 8
14:00 SSW 16 gust 19 4.2 14.0 97.7 7 8
13:00 SSW 18 gust 23 4.4 14.0 97.8 7 8
12:00 SW 18 gust 23 4.6 14.0 97.9 7 8
11:00 SW 19 gust 25 4.4 14.0 98.0 7 8
10:00 SW 19 gust 25 4.7 14.0 98.0 7 8
9:00 SSW 18 gust 23 4.4 14.0 98.1 7 8
8:00 SW 14 gust 16 4.5 14.0 98.0 8 8
7:00 SSW 16 gust 19 4.6 14.0 98.1 8 8

Zoom-in to make a selection

Map of Pacific - South Coast marine weather areas Tsawwassen Ferry Terminal South Nomad - 46036 Sentry Shoal - 46131 South Brooks - 46132 Halibut Bank - 46146 South Moresby - 46147 South Hecate Strait - 46185 West Sea Otter - 46204 La Perouse Bank - 46206 East Dellwood - 46207 Discovery Island Esquimalt Harbour Kelp Reefs Malahat Race Rocks Lightstation Saturna Island Sheringham Point University of Victoria Victoria Gonzales Victoria Int'l Airport Ballenas Islands Campbell River Airport Comox Airport Entrance Island Fanny Island Nanaimo Airport Port Hardy Airport Sisters Islets Estevan Point Sartine Island Solander Island Tofino Airport Grief Point Powell River Airport Sechelt Cape St.James Bella Bella Airport Bella Coola Airport Cathedral Point Herbert Island Point Atkinson Sand Heads Lightstation Vancouver Harbour Vancouver Int'l Airport West Vancouver Port Alberni Howe Sound - Pam Rocks Squamish Airport
Legend:
buoy Buoy
land station Land Station

Pacific - South Coast Area

Another Region

What we are doing

Date modified: